sensor_id;sensor_type;location;lat;lon;timestamp;P1;durP1;ratioP1;P2;durP2;ratioP2
76284;SDS011;65096;50.998;7.098;2022-12-07T00:01:16;27.67;;;14.32;;
76284;SDS011;65096;50.998;7.098;2022-12-07T00:03:45;28.52;;;13.73;;
76284;SDS011;65096;50.998;7.098;2022-12-07T00:06:13;25.05;;;13.68;;
76284;SDS011;65096;50.998;7.098;2022-12-07T00:08:41;25.20;;;13.18;;
76284;SDS011;65096;50.998;7.098;2022-12-07T00:11:08;26.20;;;13.65;;
76284;SDS011;65096;50.998;7.098;2022-12-07T00:13:37;26.48;;;13.20;;
76284;SDS011;65096;50.998;7.098;2022-12-07T00:16:06;27.20;;;14.25;;
76284;SDS011;65096;50.998;7.098;2022-12-07T00:18:34;27.05;;;12.80;;
76284;SDS011;65096;50.998;7.098;2022-12-07T00:21:01;24.20;;;13.55;;
76284;SDS011;65096;50.998;7.098;2022-12-07T00:23:29;24.08;;;13.75;;
76284;SDS011;65096;50.998;7.098;2022-12-07T00:25:56;26.67;;;13.25;;
76284;SDS011;65096;50.998;7.098;2022-12-07T00:28:28;26.30;;;14.45;;
76284;SDS011;65096;50.998;7.098;2022-12-07T00:30:59;25.70;;;13.35;;
76284;SDS011;65096;50.998;7.098;2022-12-07T00:33:28;26.55;;;13.95;;
76284;SDS011;65096;50.998;7.098;2022-12-07T00:35:55;27.60;;;13.93;;
76284;SDS011;65096;50.998;7.098;2022-12-07T00:38:22;27.00;;;14.20;;
76284;SDS011;65096;50.998;7.098;2022-12-07T00:40:53;26.90;;;13.85;;
76284;SDS011;65096;50.998;7.098;2022-12-07T00:43:20;24.75;;;13.07;;
76284;SDS011;65096;50.998;7.098;2022-12-07T00:45:47;27.17;;;13.23;;
76284;SDS011;65096;50.998;7.098;2022-12-07T00:48:14;26.73;;;14.30;;
76284;SDS011;65096;50.998;7.098;2022-12-07T00:50:42;26.33;;;14.05;;
76284;SDS011;65096;50.998;7.098;2022-12-07T00:53:08;28.15;;;14.10;;
76284;SDS011;65096;50.998;7.098;2022-12-07T00:55:35;25.77;;;14.48;;
76284;SDS011;65096;50.998;7.098;2022-12-07T00:58:02;24.25;;;13.40;;
76284;SDS011;65096;50.998;7.098;2022-12-07T01:00:29;27.13;;;14.40;;
76284;SDS011;65096;50.998;7.098;2022-12-07T01:02:57;21.55;;;13.05;;
76284;SDS011;65096;50.998;7.098;2022-12-07T01:05:23;26.00;;;13.70;;
76284;SDS011;65096;50.998;7.098;2022-12-07T01:07:51;27.83;;;15.32;;
76284;SDS011;65096;50.998;7.098;2022-12-07T01:10:18;29.83;;;14.20;;
76284;SDS011;65096;50.998;7.098;2022-12-07T01:12:45;28.30;;;14.38;;
76284;SDS011;65096;50.998;7.098;2022-12-07T01:15:11;27.70;;;15.50;;
76284;SDS011;65096;50.998;7.098;2022-12-07T01:17:38;26.92;;;15.02;;
76284;SDS011;65096;50.998;7.098;2022-12-07T01:20:05;26.35;;;14.48;;
76284;SDS011;65096;50.998;7.098;2022-12-07T01:22:35;25.52;;;14.10;;
76284;SDS011;65096;50.998;7.098;2022-12-07T01:25:04;25.00;;;13.82;;
76284;SDS011;65096;50.998;7.098;2022-12-07T01:27:32;27.40;;;14.68;;
76284;SDS011;65096;50.998;7.098;2022-12-07T01:29:59;29.05;;;14.13;;
76284;SDS011;65096;50.998;7.098;2022-12-07T01:32:25;26.05;;;13.65;;
76284;SDS011;65096;50.998;7.098;2022-12-07T01:34:52;27.65;;;15.05;;
76284;SDS011;65096;50.998;7.098;2022-12-07T01:37:19;27.52;;;13.98;;
76284;SDS011;65096;50.998;7.098;2022-12-07T01:39:48;27.95;;;15.95;;
76284;SDS011;65096;50.998;7.098;2022-12-07T01:42:17;25.23;;;13.73;;
76284;SDS011;65096;50.998;7.098;2022-12-07T01:47:48;28.77;;;15.60;;
76284;SDS011;65096;50.998;7.098;2022-12-07T01:50:19;28.70;;;14.60;;
76284;SDS011;65096;50.998;7.098;2022-12-07T01:52:47;24.92;;;13.55;;
76284;SDS011;65096;50.998;7.098;2022-12-07T01:55:17;27.30;;;14.98;;
76284;SDS011;65096;50.998;7.098;2022-12-07T01:57:48;27.85;;;15.88;;
76284;SDS011;65096;50.998;7.098;2022-12-07T02:00:17;28.67;;;15.32;;
76284;SDS011;65096;50.998;7.098;2022-12-07T02:02:45;26.13;;;14.82;;
76284;SDS011;65096;50.998;7.098;2022-12-07T02:05:16;29.52;;;15.10;;
76284;SDS011;65096;50.998;7.098;2022-12-07T02:07:43;25.33;;;15.65;;
76284;SDS011;65096;50.998;7.098;2022-12-07T02:10:13;28.02;;;14.27;;
76284;SDS011;65096;50.998;7.098;2022-12-07T02:12:41;27.42;;;15.32;;
76284;SDS011;65096;50.998;7.098;2022-12-07T02:15:11;30.13;;;16.13;;
76284;SDS011;65096;50.998;7.098;2022-12-07T02:17:40;29.60;;;17.10;;
76284;SDS011;65096;50.998;7.098;2022-12-07T02:20:21;28.75;;;15.85;;
76284;SDS011;65096;50.998;7.098;2022-12-07T02:23:00;28.52;;;16.25;;
76284;SDS011;65096;50.998;7.098;2022-12-07T02:25:48;27.98;;;14.70;;
76284;SDS011;65096;50.998;7.098;2022-12-07T02:28:29;34.95;;;16.50;;
76284;SDS011;65096;50.998;7.098;2022-12-07T02:31:03;27.40;;;15.93;;
76284;SDS011;65096;50.998;7.098;2022-12-07T02:33:36;31.33;;;16.50;;
76284;SDS011;65096;50.998;7.098;2022-12-07T02:36:08;28.67;;;16.20;;
76284;SDS011;65096;50.998;7.098;2022-12-07T02:38:39;30.45;;;16.42;;
76284;SDS011;65096;50.998;7.098;2022-12-07T02:41:13;31.20;;;17.00;;
76284;SDS011;65096;50.998;7.098;2022-12-07T02:43:46;28.48;;;15.50;;
76284;SDS011;65096;50.998;7.098;2022-12-07T02:46:19;28.38;;;15.25;;
76284;SDS011;65096;50.998;7.098;2022-12-07T02:48:48;33.60;;;18.42;;
76284;SDS011;65096;50.998;7.098;2022-12-07T02:51:17;29.08;;;16.13;;
76284;SDS011;65096;50.998;7.098;2022-12-07T02:53:44;35.10;;;16.30;;
76284;SDS011;65096;50.998;7.098;2022-12-07T02:56:12;30.55;;;16.75;;
76284;SDS011;65096;50.998;7.098;2022-12-07T02:58:50;28.35;;;15.40;;
76284;SDS011;65096;50.998;7.098;2022-12-07T03:01:28;29.65;;;16.55;;
76284;SDS011;65096;50.998;7.098;2022-12-07T03:04:06;32.83;;;15.80;;
76284;SDS011;65096;50.998;7.098;2022-12-07T03:06:43;30.15;;;16.17;;
76284;SDS011;65096;50.998;7.098;2022-12-07T03:09:20;30.08;;;17.40;;
76284;SDS011;65096;50.998;7.098;2022-12-07T03:11:55;30.48;;;15.98;;
76284;SDS011;65096;50.998;7.098;2022-12-07T03:14:34;34.13;;;17.83;;
76284;SDS011;65096;50.998;7.098;2022-12-07T03:17:08;36.55;;;18.25;;
76284;SDS011;65096;50.998;7.098;2022-12-07T03:19:40;32.88;;;18.23;;
76284;SDS011;65096;50.998;7.098;2022-12-07T03:22:11;32.63;;;17.42;;
76284;SDS011;65096;50.998;7.098;2022-12-07T03:24:40;33.20;;;17.27;;
76284;SDS011;65096;50.998;7.098;2022-12-07T03:27:11;34.53;;;18.45;;
76284;SDS011;65096;50.998;7.098;2022-12-07T03:29:42;31.13;;;17.27;;
76284;SDS011;65096;50.998;7.098;2022-12-07T03:32:14;34.60;;;18.42;;
76284;SDS011;65096;50.998;7.098;2022-12-07T03:34:47;33.92;;;18.15;;
76284;SDS011;65096;50.998;7.098;2022-12-07T03:37:20;33.47;;;17.52;;
76284;SDS011;65096;50.998;7.098;2022-12-07T03:39:56;36.15;;;18.55;;
76284;SDS011;65096;50.998;7.098;2022-12-07T03:44:55;33.40;;;17.15;;
76284;SDS011;65096;50.998;7.098;2022-12-07T03:47:24;30.95;;;15.77;;
76284;SDS011;65096;50.998;7.098;2022-12-07T03:49:58;32.08;;;17.25;;
76284;SDS011;65096;50.998;7.098;2022-12-07T03:52:30;32.33;;;18.05;;
76284;SDS011;65096;50.998;7.098;2022-12-07T03:55:05;32.28;;;18.00;;
76284;SDS011;65096;50.998;7.098;2022-12-07T03:57:36;34.47;;;18.27;;
76284;SDS011;65096;50.998;7.098;2022-12-07T04:00:06;34.35;;;18.48;;
76284;SDS011;65096;50.998;7.098;2022-12-07T04:02:35;31.33;;;18.08;;
76284;SDS011;65096;50.998;7.098;2022-12-07T04:05:03;33.47;;;17.17;;
76284;SDS011;65096;50.998;7.098;2022-12-07T04:07:30;30.73;;;16.70;;
76284;SDS011;65096;50.998;7.098;2022-12-07T04:09:57;31.88;;;17.58;;
76284;SDS011;65096;50.998;7.098;2022-12-07T04:12:23;31.67;;;18.25;;
76284;SDS011;65096;50.998;7.098;2022-12-07T04:14:50;34.03;;;18.25;;
76284;SDS011;65096;50.998;7.098;2022-12-07T04:17:17;30.33;;;17.10;;
76284;SDS011;65096;50.998;7.098;2022-12-07T04:19:45;32.95;;;18.17;;
76284;SDS011;65096;50.998;7.098;2022-12-07T04:22:11;36.53;;;18.85;;
76284;SDS011;65096;50.998;7.098;2022-12-07T04:24:38;32.15;;;17.60;;
76284;SDS011;65096;50.998;7.098;2022-12-07T04:27:05;28.35;;;16.45;;
76284;SDS011;65096;50.998;7.098;2022-12-07T04:29:32;34.80;;;17.83;;
76284;SDS011;65096;50.998;7.098;2022-12-07T04:31:58;31.67;;;17.92;;
76284;SDS011;65096;50.998;7.098;2022-12-07T04:34:25;32.63;;;17.55;;
76284;SDS011;65096;50.998;7.098;2022-12-07T04:36:54;36.10;;;18.42;;
76284;SDS011;65096;50.998;7.098;2022-12-07T04:39:21;28.02;;;17.42;;
76284;SDS011;65096;50.998;7.098;2022-12-07T04:41:50;31.35;;;17.10;;
76284;SDS011;65096;50.998;7.098;2022-12-07T04:44:17;26.88;;;16.58;;
76284;SDS011;65096;50.998;7.098;2022-12-07T04:46:45;31.33;;;16.70;;
76284;SDS011;65096;50.998;7.098;2022-12-07T04:49:12;33.53;;;17.30;;
76284;SDS011;65096;50.998;7.098;2022-12-07T04:51:40;32.22;;;17.58;;
76284;SDS011;65096;50.998;7.098;2022-12-07T04:54:08;29.80;;;16.92;;
76284;SDS011;65096;50.998;7.098;2022-12-07T04:56:35;29.70;;;16.77;;
76284;SDS011;65096;50.998;7.098;2022-12-07T04:59:02;29.65;;;17.63;;
76284;SDS011;65096;50.998;7.098;2022-12-07T05:01:30;30.98;;;17.27;;
76284;SDS011;65096;50.998;7.098;2022-12-07T05:03:57;31.67;;;16.98;;
76284;SDS011;65096;50.998;7.098;2022-12-07T05:06:24;30.70;;;18.40;;
76284;SDS011;65096;50.998;7.098;2022-12-07T05:08:51;29.17;;;17.08;;
76284;SDS011;65096;50.998;7.098;2022-12-07T05:11:20;27.65;;;16.38;;
76284;SDS011;65096;50.998;7.098;2022-12-07T05:14:07;29.92;;;15.38;;
76284;SDS011;65096;50.998;7.098;2022-12-07T05:16:36;28.17;;;15.65;;
76284;SDS011;65096;50.998;7.098;2022-12-07T05:19:03;27.17;;;15.85;;
76284;SDS011;65096;50.998;7.098;2022-12-07T05:21:30;26.42;;;15.27;;
76284;SDS011;65096;50.998;7.098;2022-12-07T05:23:57;29.50;;;17.02;;
76284;SDS011;65096;50.998;7.098;2022-12-07T05:26:25;30.25;;;16.50;;
76284;SDS011;65096;50.998;7.098;2022-12-07T05:28:52;29.42;;;16.23;;
76284;SDS011;65096;50.998;7.098;2022-12-07T05:31:20;30.83;;;17.27;;
76284;SDS011;65096;50.998;7.098;2022-12-07T05:33:47;29.45;;;15.50;;
76284;SDS011;65096;50.998;7.098;2022-12-07T05:36:14;30.25;;;16.13;;
76284;SDS011;65096;50.998;7.098;2022-12-07T05:38:41;27.05;;;14.85;;
76284;SDS011;65096;50.998;7.098;2022-12-07T05:41:08;27.52;;;15.45;;
76284;SDS011;65096;50.998;7.098;2022-12-07T05:43:59;28.35;;;16.20;;
76284;SDS011;65096;50.998;7.098;2022-12-07T05:46:26;28.30;;;14.43;;
76284;SDS011;65096;50.998;7.098;2022-12-07T05:48:53;28.88;;;15.57;;
76284;SDS011;65096;50.998;7.098;2022-12-07T05:51:19;29.25;;;15.15;;
76284;SDS011;65096;50.998;7.098;2022-12-07T05:53:46;29.25;;;15.55;;
76284;SDS011;65096;50.998;7.098;2022-12-07T05:56:13;27.23;;;15.20;;
76284;SDS011;65096;50.998;7.098;2022-12-07T05:58:40;25.55;;;15.02;;
76284;SDS011;65096;50.998;7.098;2022-12-07T06:01:25;28.80;;;16.00;;
76284;SDS011;65096;50.998;7.098;2022-12-07T06:03:52;25.33;;;15.52;;
76284;SDS011;65096;50.998;7.098;2022-12-07T06:06:19;29.27;;;16.85;;
76284;SDS011;65096;50.998;7.098;2022-12-07T06:08:45;26.67;;;16.20;;
76284;SDS011;65096;50.998;7.098;2022-12-07T06:11:12;32.63;;;16.63;;
76284;SDS011;65096;50.998;7.098;2022-12-07T06:13:56;28.70;;;16.77;;
76284;SDS011;65096;50.998;7.098;2022-12-07T06:16:23;32.60;;;16.38;;
76284;SDS011;65096;50.998;7.098;2022-12-07T06:18:51;30.35;;;16.90;;
76284;SDS011;65096;50.998;7.098;2022-12-07T06:21:18;30.17;;;17.00;;
76284;SDS011;65096;50.998;7.098;2022-12-07T06:23:44;30.83;;;17.25;;
76284;SDS011;65096;50.998;7.098;2022-12-07T06:26:12;28.60;;;17.08;;
76284;SDS011;65096;50.998;7.098;2022-12-07T06:28:39;31.88;;;16.90;;
76284;SDS011;65096;50.998;7.098;2022-12-07T06:31:06;27.77;;;15.85;;
76284;SDS011;65096;50.998;7.098;2022-12-07T06:33:33;25.70;;;15.27;;
76284;SDS011;65096;50.998;7.098;2022-12-07T06:36:02;26.27;;;15.43;;
76284;SDS011;65096;50.998;7.098;2022-12-07T06:38:29;28.17;;;15.73;;
76284;SDS011;65096;50.998;7.098;2022-12-07T06:40:56;25.63;;;15.52;;
76284;SDS011;65096;50.998;7.098;2022-12-07T06:43:23;25.52;;;14.52;;
76284;SDS011;65096;50.998;7.098;2022-12-07T06:45:49;25.33;;;13.95;;
76284;SDS011;65096;50.998;7.098;2022-12-07T06:48:19;24.85;;;14.30;;
76284;SDS011;65096;50.998;7.098;2022-12-07T06:50:46;22.52;;;13.10;;
76284;SDS011;65096;50.998;7.098;2022-12-07T06:53:15;27.15;;;13.00;;
76284;SDS011;65096;50.998;7.098;2022-12-07T06:55:42;25.58;;;14.90;;
76284;SDS011;65096;50.998;7.098;2022-12-07T06:58:09;24.20;;;14.13;;
76284;SDS011;65096;50.998;7.098;2022-12-07T07:00:35;23.58;;;14.32;;
76284;SDS011;65096;50.998;7.098;2022-12-07T07:03:02;25.90;;;14.77;;
76284;SDS011;65096;50.998;7.098;2022-12-07T07:05:29;28.02;;;15.57;;
76284;SDS011;65096;50.998;7.098;2022-12-07T07:07:55;23.80;;;14.82;;
76284;SDS011;65096;50.998;7.098;2022-12-07T07:10:23;26.95;;;13.73;;
76284;SDS011;65096;50.998;7.098;2022-12-07T07:12:50;23.65;;;12.98;;
76284;SDS011;65096;50.998;7.098;2022-12-07T07:15:17;29.77;;;14.65;;
76284;SDS011;65096;50.998;7.098;2022-12-07T07:17:43;28.42;;;14.45;;
76284;SDS011;65096;50.998;7.098;2022-12-07T07:20:10;23.70;;;14.75;;
76284;SDS011;65096;50.998;7.098;2022-12-07T07:22:38;24.27;;;13.77;;
76284;SDS011;65096;50.998;7.098;2022-12-07T07:25:07;28.58;;;15.35;;
76284;SDS011;65096;50.998;7.098;2022-12-07T07:27:35;25.40;;;14.45;;
76284;SDS011;65096;50.998;7.098;2022-12-07T07:30:02;24.23;;;14.60;;
76284;SDS011;65096;50.998;7.098;2022-12-07T07:32:30;25.38;;;12.73;;
76284;SDS011;65096;50.998;7.098;2022-12-07T07:34:56;28.17;;;15.32;;
76284;SDS011;65096;50.998;7.098;2022-12-07T07:37:23;29.23;;;15.77;;
76284;SDS011;65096;50.998;7.098;2022-12-07T07:39:50;26.17;;;14.52;;
76284;SDS011;65096;50.998;7.098;2022-12-07T07:42:17;26.83;;;14.98;;
76284;SDS011;65096;50.998;7.098;2022-12-07T07:44:45;27.02;;;15.20;;
76284;SDS011;65096;50.998;7.098;2022-12-07T07:47:11;26.80;;;14.68;;
76284;SDS011;65096;50.998;7.098;2022-12-07T07:49:38;31.67;;;16.73;;
76284;SDS011;65096;50.998;7.098;2022-12-07T07:52:05;32.10;;;15.60;;
76284;SDS011;65096;50.998;7.098;2022-12-07T07:54:32;28.95;;;15.73;;
76284;SDS011;65096;50.998;7.098;2022-12-07T07:57:01;29.15;;;15.25;;
76284;SDS011;65096;50.998;7.098;2022-12-07T07:59:27;32.63;;;15.30;;
76284;SDS011;65096;50.998;7.098;2022-12-07T08:01:55;28.83;;;15.85;;
76284;SDS011;65096;50.998;7.098;2022-12-07T08:04:22;26.17;;;13.85;;
76284;SDS011;65096;50.998;7.098;2022-12-07T08:06:49;26.00;;;14.18;;
76284;SDS011;65096;50.998;7.098;2022-12-07T08:09:16;26.05;;;14.40;;
76284;SDS011;65096;50.998;7.098;2022-12-07T08:11:42;25.23;;;15.48;;
76284;SDS011;65096;50.998;7.098;2022-12-07T08:14:10;30.40;;;15.32;;
76284;SDS011;65096;50.998;7.098;2022-12-07T08:16:37;28.38;;;14.70;;
76284;SDS011;65096;50.998;7.098;2022-12-07T08:19:06;25.52;;;13.88;;
76284;SDS011;65096;50.998;7.098;2022-12-07T08:21:33;26.38;;;13.77;;
76284;SDS011;65096;50.998;7.098;2022-12-07T08:23:59;27.80;;;14.63;;
76284;SDS011;65096;50.998;7.098;2022-12-07T08:26:26;28.33;;;14.10;;
76284;SDS011;65096;50.998;7.098;2022-12-07T08:28:53;31.38;;;14.52;;
76284;SDS011;65096;50.998;7.098;2022-12-07T08:31:19;23.77;;;13.27;;
76284;SDS011;65096;50.998;7.098;2022-12-07T08:33:48;23.70;;;13.35;;
76284;SDS011;65096;50.998;7.098;2022-12-07T08:36:16;24.23;;;14.15;;
76284;SDS011;65096;50.998;7.098;2022-12-07T08:38:43;29.92;;;16.20;;
76284;SDS011;65096;50.998;7.098;2022-12-07T08:41:10;26.65;;;14.57;;
76284;SDS011;65096;50.998;7.098;2022-12-07T08:43:37;27.10;;;13.80;;
76284;SDS011;65096;50.998;7.098;2022-12-07T08:46:06;25.80;;;14.15;;
76284;SDS011;65096;50.998;7.098;2022-12-07T08:48:35;29.48;;;14.65;;
76284;SDS011;65096;50.998;7.098;2022-12-07T08:51:05;28.70;;;15.35;;
76284;SDS011;65096;50.998;7.098;2022-12-07T08:53:34;27.80;;;16.48;;
76284;SDS011;65096;50.998;7.098;2022-12-07T08:56:03;26.25;;;15.27;;
76284;SDS011;65096;50.998;7.098;2022-12-07T08:58:31;29.05;;;15.60;;
76284;SDS011;65096;50.998;7.098;2022-12-07T09:00:58;28.42;;;14.32;;
76284;SDS011;65096;50.998;7.098;2022-12-07T09:03:25;27.27;;;15.65;;
76284;SDS011;65096;50.998;7.098;2022-12-07T09:05:52;25.60;;;14.55;;
76284;SDS011;65096;50.998;7.098;2022-12-07T09:08:19;27.40;;;14.32;;
76284;SDS011;65096;50.998;7.098;2022-12-07T09:10:49;29.45;;;14.88;;
76284;SDS011;65096;50.998;7.098;2022-12-07T09:13:16;26.00;;;14.25;;
76284;SDS011;65096;50.998;7.098;2022-12-07T09:15:42;24.80;;;13.85;;
76284;SDS011;65096;50.998;7.098;2022-12-07T09:18:09;24.27;;;14.48;;
76284;SDS011;65096;50.998;7.098;2022-12-07T09:20:36;27.25;;;15.20;;
76284;SDS011;65096;50.998;7.098;2022-12-07T09:23:03;25.05;;;14.63;;
76284;SDS011;65096;50.998;7.098;2022-12-07T09:25:32;24.10;;;14.88;;
76284;SDS011;65096;50.998;7.098;2022-12-07T09:28:00;27.70;;;14.75;;
76284;SDS011;65096;50.998;7.098;2022-12-07T09:30:27;29.90;;;15.75;;
76284;SDS011;65096;50.998;7.098;2022-12-07T09:32:55;26.17;;;14.65;;
76284;SDS011;65096;50.998;7.098;2022-12-07T09:35:23;29.30;;;16.13;;
76284;SDS011;65096;50.998;7.098;2022-12-07T09:37:50;27.52;;;14.10;;
76284;SDS011;65096;50.998;7.098;2022-12-07T09:40:17;27.48;;;15.10;;
76284;SDS011;65096;50.998;7.098;2022-12-07T09:42:47;27.40;;;16.85;;
76284;SDS011;65096;50.998;7.098;2022-12-07T09:45:18;26.55;;;15.93;;
76284;SDS011;65096;50.998;7.098;2022-12-07T09:47:47;25.58;;;15.32;;
76284;SDS011;65096;50.998;7.098;2022-12-07T09:50:14;28.77;;;14.57;;
76284;SDS011;65096;50.998;7.098;2022-12-07T09:52:43;27.15;;;14.80;;
76284;SDS011;65096;50.998;7.098;2022-12-07T09:55:13;22.38;;;14.05;;
76284;SDS011;65096;50.998;7.098;2022-12-07T09:57:41;23.88;;;14.15;;
76284;SDS011;65096;50.998;7.098;2022-12-07T10:00:12;23.52;;;13.20;;
76284;SDS011;65096;50.998;7.098;2022-12-07T10:02:44;24.42;;;13.88;;
76284;SDS011;65096;50.998;7.098;2022-12-07T10:05:13;24.52;;;13.60;;
76284;SDS011;65096;50.998;7.098;2022-12-07T10:07:41;22.30;;;12.95;;
76284;SDS011;65096;50.998;7.098;2022-12-07T10:10:14;21.90;;;11.93;;
76284;SDS011;65096;50.998;7.098;2022-12-07T10:12:52;23.83;;;13.02;;
76284;SDS011;65096;50.998;7.098;2022-12-07T10:15:21;26.23;;;13.73;;
76284;SDS011;65096;50.998;7.098;2022-12-07T10:17:49;22.20;;;12.77;;
76284;SDS011;65096;50.998;7.098;2022-12-07T10:20:19;23.60;;;13.52;;
76284;SDS011;65096;50.998;7.098;2022-12-07T10:23:00;23.98;;;12.70;;
76284;SDS011;65096;50.998;7.098;2022-12-07T10:25:29;23.27;;;13.38;;
76284;SDS011;65096;50.998;7.098;2022-12-07T10:33:22;20.33;;;11.73;;
76284;SDS011;65096;50.998;7.098;2022-12-07T10:36:00;22.70;;;13.63;;
76284;SDS011;65096;50.998;7.098;2022-12-07T10:38:43;22.60;;;12.23;;
76284;SDS011;65096;50.998;7.098;2022-12-07T10:41:12;22.50;;;12.43;;
76284;SDS011;65096;50.998;7.098;2022-12-07T10:43:45;26.15;;;13.25;;
76284;SDS011;65096;50.998;7.098;2022-12-07T10:46:19;24.75;;;11.80;;
76284;SDS011;65096;50.998;7.098;2022-12-07T10:49:16;21.92;;;11.70;;
76284;SDS011;65096;50.998;7.098;2022-12-07T10:52:07;21.25;;;12.10;;
76284;SDS011;65096;50.998;7.098;2022-12-07T10:54:44;19.80;;;11.15;;
76284;SDS011;65096;50.998;7.098;2022-12-07T10:57:21;23.45;;;13.63;;
76284;SDS011;65096;50.998;7.098;2022-12-07T11:00:02;21.73;;;11.70;;
76284;SDS011;65096;50.998;7.098;2022-12-07T11:02:39;20.88;;;10.73;;
76284;SDS011;65096;50.998;7.098;2022-12-07T11:05:22;24.00;;;10.52;;
76284;SDS011;65096;50.998;7.098;2022-12-07T11:07:58;20.35;;;10.48;;
76284;SDS011;65096;50.998;7.098;2022-12-07T11:10:34;17.15;;;9.70;;
76284;SDS011;65096;50.998;7.098;2022-12-07T11:13:11;18.52;;;9.15;;
76284;SDS011;65096;50.998;7.098;2022-12-07T11:16:01;17.08;;;8.75;;
76284;SDS011;65096;50.998;7.098;2022-12-07T11:18:39;19.17;;;8.70;;
76284;SDS011;65096;50.998;7.098;2022-12-07T11:21:19;14.98;;;6.95;;
76284;SDS011;65096;50.998;7.098;2022-12-07T11:23:52;15.48;;;8.20;;
76284;SDS011;65096;50.998;7.098;2022-12-07T11:26:30;17.70;;;7.43;;
76284;SDS011;65096;50.998;7.098;2022-12-07T11:29:08;13.52;;;6.78;;
76284;SDS011;65096;50.998;7.098;2022-12-07T11:31:52;15.15;;;6.53;;
76284;SDS011;65096;50.998;7.098;2022-12-07T11:34:33;13.05;;;6.38;;
76284;SDS011;65096;50.998;7.098;2022-12-07T11:37:07;14.13;;;6.38;;
76284;SDS011;65096;50.998;7.098;2022-12-07T11:39:41;17.13;;;6.57;;
76284;SDS011;65096;50.998;7.098;2022-12-07T11:42:13;11.88;;;5.13;;
76284;SDS011;65096;50.998;7.098;2022-12-07T11:44:45;15.23;;;6.18;;
76284;SDS011;65096;50.998;7.098;2022-12-07T11:47:21;13.20;;;6.10;;
76284;SDS011;65096;50.998;7.098;2022-12-07T11:49:53;15.70;;;6.30;;
76284;SDS011;65096;50.998;7.098;2022-12-07T11:52:27;16.52;;;6.68;;
76284;SDS011;65096;50.998;7.098;2022-12-07T11:55:05;14.30;;;6.40;;
76284;SDS011;65096;50.998;7.098;2022-12-07T11:57:46;11.60;;;5.75;;
76284;SDS011;65096;50.998;7.098;2022-12-07T12:00:19;15.98;;;5.43;;
76284;SDS011;65096;50.998;7.098;2022-12-07T12:02:48;13.35;;;5.65;;
76284;SDS011;65096;50.998;7.098;2022-12-07T12:05:22;10.95;;;4.95;;
76284;SDS011;65096;50.998;7.098;2022-12-07T12:07:52;12.48;;;5.65;;
76284;SDS011;65096;50.998;7.098;2022-12-07T12:10:30;13.77;;;5.65;;
76284;SDS011;65096;50.998;7.098;2022-12-07T12:13:18;14.20;;;4.95;;
76284;SDS011;65096;50.998;7.098;2022-12-07T12:16:20;11.73;;;5.28;;
76284;SDS011;65096;50.998;7.098;2022-12-07T12:19:14;16.02;;;5.78;;
76284;SDS011;65096;50.998;7.098;2022-12-07T12:21:48;15.15;;;6.20;;
76284;SDS011;65096;50.998;7.098;2022-12-07T12:24:23;15.18;;;6.00;;
76284;SDS011;65096;50.998;7.098;2022-12-07T12:26:54;14.50;;;6.75;;
76284;SDS011;65096;50.998;7.098;2022-12-07T12:29:30;17.48;;;6.38;;
76284;SDS011;65096;50.998;7.098;2022-12-07T12:34:58;15.98;;;6.30;;
76284;SDS011;65096;50.998;7.098;2022-12-07T12:37:38;16.67;;;6.82;;
76284;SDS011;65096;50.998;7.098;2022-12-07T12:58:28;16.17;;;6.32;;
76284;SDS011;65096;50.998;7.098;2022-12-07T13:04:14;17.23;;;7.40;;
76284;SDS011;65096;50.998;7.098;2022-12-07T13:06:51;16.13;;;6.57;;
76284;SDS011;65096;50.998;7.098;2022-12-07T13:09:20;15.90;;;6.78;;
76284;SDS011;65096;50.998;7.098;2022-12-07T13:11:49;16.15;;;6.45;;
76284;SDS011;65096;50.998;7.098;2022-12-07T13:14:51;13.63;;;6.32;;
76284;SDS011;65096;50.998;7.098;2022-12-07T13:20:42;15.23;;;6.03;;
76284;SDS011;65096;50.998;7.098;2022-12-07T13:23:12;14.32;;;5.72;;
76284;SDS011;65096;50.998;7.098;2022-12-07T13:25:45;15.05;;;6.20;;
76284;SDS011;65096;50.998;7.098;2022-12-07T13:28:17;13.77;;;6.38;;
76284;SDS011;65096;50.998;7.098;2022-12-07T13:30:50;17.92;;;6.78;;
76284;SDS011;65096;50.998;7.098;2022-12-07T13:33:27;15.50;;;5.93;;
76284;SDS011;65096;50.998;7.098;2022-12-07T13:35:55;11.80;;;4.97;;
76284;SDS011;65096;50.998;7.098;2022-12-07T13:38:25;14.68;;;5.85;;
76284;SDS011;65096;50.998;7.098;2022-12-07T13:41:05;18.00;;;5.50;;
76284;SDS011;65096;50.998;7.098;2022-12-07T13:43:45;15.05;;;5.55;;
76284;SDS011;65096;50.998;7.098;2022-12-07T13:46:18;15.38;;;5.00;;
76284;SDS011;65096;50.998;7.098;2022-12-07T13:48:50;11.23;;;4.93;;
76284;SDS011;65096;50.998;7.098;2022-12-07T13:51:19;11.18;;;4.35;;
76284;SDS011;65096;50.998;7.098;2022-12-07T13:53:48;10.07;;;4.40;;
76284;SDS011;65096;50.998;7.098;2022-12-07T13:56:16;9.40;;;3.75;;
76284;SDS011;65096;50.998;7.098;2022-12-07T13:58:43;13.30;;;4.07;;
76284;SDS011;65096;50.998;7.098;2022-12-07T14:01:10;11.85;;;4.65;;
76284;SDS011;65096;50.998;7.098;2022-12-07T14:03:39;11.80;;;5.35;;
76284;SDS011;65096;50.998;7.098;2022-12-07T14:06:10;12.52;;;5.50;;
76284;SDS011;65096;50.998;7.098;2022-12-07T14:08:41;14.15;;;5.47;;
76284;SDS011;65096;50.998;7.098;2022-12-07T14:11:09;13.68;;;5.75;;
76284;SDS011;65096;50.998;7.098;2022-12-07T14:13:44;15.82;;;6.10;;
76284;SDS011;65096;50.998;7.098;2022-12-07T14:16:20;15.25;;;6.57;;
76284;SDS011;65096;50.998;7.098;2022-12-07T14:18:51;14.85;;;6.90;;
76284;SDS011;65096;50.998;7.098;2022-12-07T14:21:19;16.10;;;7.10;;
76284;SDS011;65096;50.998;7.098;2022-12-07T14:24:02;16.02;;;6.82;;
76284;SDS011;65096;50.998;7.098;2022-12-07T14:26:35;17.23;;;7.05;;
76284;SDS011;65096;50.998;7.098;2022-12-07T14:31:47;15.63;;;6.65;;
76284;SDS011;65096;50.998;7.098;2022-12-07T14:34:15;15.05;;;6.40;;
76284;SDS011;65096;50.998;7.098;2022-12-07T14:36:42;19.45;;;7.00;;
76284;SDS011;65096;50.998;7.098;2022-12-07T14:39:09;15.48;;;6.97;;
76284;SDS011;65096;50.998;7.098;2022-12-07T14:41:35;14.68;;;6.85;;
76284;SDS011;65096;50.998;7.098;2022-12-07T14:44:17;15.68;;;6.50;;
76284;SDS011;65096;50.998;7.098;2022-12-07T14:46:46;15.63;;;6.78;;
76284;SDS011;65096;50.998;7.098;2022-12-07T14:49:12;14.80;;;7.15;;
76284;SDS011;65096;50.998;7.098;2022-12-07T14:51:40;14.85;;;7.00;;
76284;SDS011;65096;50.998;7.098;2022-12-07T14:54:11;12.75;;;6.45;;
76284;SDS011;65096;50.998;7.098;2022-12-07T14:56:41;14.05;;;7.32;;
76284;SDS011;65096;50.998;7.098;2022-12-07T14:59:09;15.60;;;7.35;;
76284;SDS011;65096;50.998;7.098;2022-12-07T15:01:36;12.88;;;7.10;;
76284;SDS011;65096;50.998;7.098;2022-12-07T15:04:02;17.60;;;7.15;;
76284;SDS011;65096;50.998;7.098;2022-12-07T15:06:29;13.68;;;7.07;;
76284;SDS011;65096;50.998;7.098;2022-12-07T15:08:57;14.73;;;7.32;;
76284;SDS011;65096;50.998;7.098;2022-12-07T15:11:24;17.63;;;7.13;;
76284;SDS011;65096;50.998;7.098;2022-12-07T15:13:51;14.50;;;7.07;;
76284;SDS011;65096;50.998;7.098;2022-12-07T15:19:04;15.40;;;7.75;;
76284;SDS011;65096;50.998;7.098;2022-12-07T15:21:31;19.67;;;8.00;;
76284;SDS011;65096;50.998;7.098;2022-12-07T15:23:59;16.45;;;7.30;;
76284;SDS011;65096;50.998;7.098;2022-12-07T15:26:26;17.52;;;6.70;;
76284;SDS011;65096;50.998;7.098;2022-12-07T15:28:53;15.63;;;6.82;;